Time;durP1;ratioP1;P1;durP2;ratioP2;P2;SDS_P1;SDS_P2;PMS_P1;PMS_P2;Temp;Humidity;BMP_temperature;BMP_pressure;BME280_temperature;BME280_humidity;BME280_pressure;Samples;Min_cycle;Max_cycle;Signal;HPM_P1;HPM_P2
2021/12/19 00:09:24;;;;;;;7.10;5.20;;;6.70;99.90;;;;;;4993771;28;20204;-73
2021/12/19 00:11:50;;;;;;;8.10;5.30;;;6.70;99.90;;;;;;4995077;28;20243;-71
2021/12/19 00:14:19;;;;;;;7.57;4.87;;;6.70;99.90;;;;;;4992702;28;20599;-72
2021/12/19 00:16:46;;;;;;;8.97;5.77;;;6.60;99.90;;;;;;4991110;28;20588;-71
2021/12/19 00:19:13;;;;;;;8.93;5.03;;;6.60;99.90;;;;;;4984166;28;20205;-75
2021/12/19 00:21:40;;;;;;;9.23;5.60;;;6.50;99.90;;;;;;4984995;28;20198;-72
2021/12/19 00:24:07;;;;;;;10.43;5.07;;;6.50;99.90;;;;;;4992283;28;20222;-71
2021/12/19 00:26:34;;;;;;;7.43;4.93;;;6.50;99.90;;;;;;4996906;28;20204;-71
2021/12/19 00:29:01;;;;;;;7.90;5.40;;;6.60;99.90;;;;;;4987897;28;20197;-71
2021/12/19 00:31:28;;;;;;;9.00;5.20;;;6.70;99.90;;;;;;4979469;28;20263;-75
2021/12/19 00:33:55;;;;;;;8.43;5.40;;;6.70;99.90;;;;;;4983695;28;20226;-71
2021/12/19 00:36:22;;;;;;;8.17;5.13;;;6.70;99.90;;;;;;4993028;28;20200;-71
2021/12/19 00:38:49;;;;;;;10.83;5.13;;;6.60;99.90;;;;;;4993228;28;20489;-71
2021/12/19 00:41:15;;;;;;;10.00;5.27;;;6.60;99.90;;;;;;4990158;28;20208;-73
2021/12/19 00:46:11;;;;;;;8.40;5.40;;;6.60;99.90;;;;;;4992286;28;20212;-71
2021/12/19 00:48:42;;;;;;;8.70;5.03;;;6.60;99.90;;;;;;4993519;28;20189;-73
2021/12/19 00:51:10;;;;;;;10.20;5.60;;;6.70;99.90;;;;;;4990387;28;20241;-72
2021/12/19 00:53:38;;;;;;;8.07;5.20;;;6.60;99.90;;;;;;4991738;28;20697;-71
2021/12/19 00:56:05;;;;;;;7.63;5.20;;;6.60;99.90;;;;;;4987740;28;20224;-73
2021/12/19 00:58:33;;;;;;;9.67;5.87;;;6.70;99.90;;;;;;5000062;28;20214;-71
2021/12/19 01:01:01;;;;;;;9.33;5.63;;;6.60;99.90;;;;;;5005160;28;20201;-71
2021/12/19 01:03:28;;;;;;;8.77;5.17;;;6.60;99.90;;;;;;4991139;28;20271;-71
2021/12/19 01:05:55;;;;;;;8.80;5.37;;;6.60;99.90;;;;;;4992471;28;20201;-73
2021/12/19 01:08:22;;;;;;;9.63;5.77;;;6.70;99.90;;;;;;4989701;28;20227;-70
2021/12/19 01:10:49;;;;;;;8.23;5.30;;;6.70;99.90;;;;;;4987849;28;20200;-71
2021/12/19 01:13:17;;;;;;;9.70;5.27;;;6.70;99.90;;;;;;4989647;28;20224;-71
2021/12/19 01:15:46;;;;;;;8.67;5.67;;;6.80;99.90;;;;;;4991000;28;20251;-73
2021/12/19 01:18:14;;;;;;;9.70;5.60;;;6.90;99.90;;;;;;4991615;28;20197;-71
2021/12/19 01:20:41;;;;;;;7.17;4.70;;;6.90;99.90;;;;;;4981756;28;20200;-71
2021/12/19 01:23:10;;;;;;;8.07;5.17;;;6.80;99.90;;;;;;4991386;28;20249;-74
2021/12/19 01:25:37;;;;;;;5.60;4.47;;;6.80;99.90;;;;;;4990268;28;20485;-72
2021/12/19 01:28:04;;;;;;;8.33;5.17;;;6.80;99.90;;;;;;4984983;28;20704;-74
2021/12/19 01:30:30;;;;;;;5.53;4.03;;;6.80;99.90;;;;;;4991069;28;21639;-71
2021/12/19 01:32:57;;;;;;;7.67;5.03;;;6.70;99.90;;;;;;4990519;28;20216;-72
2021/12/19 01:35:24;;;;;;;6.50;4.17;;;6.80;99.90;;;;;;4991522;28;20576;-73
2021/12/19 01:37:52;;;;;;;6.20;4.40;;;6.80;99.90;;;;;;4990029;28;21115;-71
2021/12/19 01:40:20;;;;;;;6.13;4.40;;;6.80;99.90;;;;;;4989817;28;20204;-72
2021/12/19 01:42:50;;;;;;;6.70;4.30;;;6.80;99.90;;;;;;4989585;28;20201;-71
2021/12/19 01:45:38;;;;;;;5.13;3.43;;;6.80;99.90;;;;;;4988874;28;20534;-71
2021/12/19 01:48:09;;;;;;;6.20;3.90;;;6.90;99.90;;;;;;4984070;28;20194;-71
2021/12/19 01:50:37;;;;;;;5.33;3.23;;;7.00;99.90;;;;;;4986014;28;20196;-71
2021/12/19 01:53:06;;;;;;;6.30;3.70;;;6.90;99.90;;;;;;4988785;28;20213;-71
2021/12/19 01:55:33;;;;;;;6.00;4.10;;;6.90;99.90;;;;;;4996461;28;20197;-73
2021/12/19 01:58:00;;;;;;;5.70;3.57;;;6.90;99.90;;;;;;4993996;28;20200;-71
2021/12/19 02:00:33;;;;;;;5.70;4.13;;;6.90;99.90;;;;;;4991644;28;20618;-75
2021/12/19 02:03:01;;;;;;;7.17;4.17;;;6.80;99.90;;;;;;4997648;28;20213;-71
2021/12/19 02:05:29;;;;;;;6.40;4.27;;;6.80;99.90;;;;;;4995953;28;20224;-71
2021/12/19 02:07:57;;;;;;;6.43;4.10;;;6.80;99.90;;;;;;5001538;28;20192;-73
2021/12/19 02:10:26;;;;;;;6.17;4.27;;;6.70;99.90;;;;;;4995256;28;20200;-71
2021/12/19 02:12:54;;;;;;;5.73;4.00;;;6.70;99.90;;;;;;4993350;28;20763;-73
2021/12/19 02:15:23;;;;;;;6.33;4.10;;;6.70;99.90;;;;;;5003896;28;20196;-71
2021/12/19 02:17:53;;;;;;;6.97;4.50;;;6.70;99.90;;;;;;4991512;28;20247;-73
2021/12/19 02:20:21;;;;;;;6.30;4.03;;;6.90;99.90;;;;;;4985636;28;20204;-71
2021/12/19 02:22:49;;;;;;;6.90;4.40;;;6.90;99.90;;;;;;4993071;28;20197;-71
2021/12/19 02:25:16;;;;;;;5.87;4.30;;;6.90;99.90;;;;;;4986378;28;20224;-71
2021/12/19 02:27:43;;;;;;;7.67;4.30;;;6.80;99.90;;;;;;4990134;28;20197;-71
2021/12/19 02:30:11;;;;;;;6.97;4.40;;;6.90;99.90;;;;;;4985347;28;20550;-74
2021/12/19 02:32:40;;;;;;;5.53;3.80;;;7.00;99.90;;;;;;4992130;28;20600;-71
2021/12/19 02:35:16;;;;;;;7.37;4.70;;;6.80;99.90;;;;;;4992006;28;20197;-74
2021/12/19 02:38:10;;;;;;;6.73;4.07;;;6.80;99.90;;;;;;4991024;28;20255;-71
2021/12/19 02:48:47;;;;;;;6.83;4.17;;;7.00;99.90;;;;;;4985047;28;20472;-71
2021/12/19 02:51:14;;;;;;;6.20;4.13;;;6.90;99.90;;;;;;4994006;28;20244;-74
2021/12/19 02:53:42;;;;;;;5.87;4.00;;;6.80;99.90;;;;;;4993828;28;20227;-71
2021/12/19 02:56:11;;;;;;;6.63;3.90;;;6.80;99.90;;;;;;5002785;28;20200;-71
2021/12/19 02:58:41;;;;;;;6.10;4.27;;;6.80;99.90;;;;;;4989474;28;20193;-72
2021/12/19 03:01:12;;;;;;;6.20;4.10;;;6.90;99.90;;;;;;4991316;28;20205;-71
2021/12/19 03:03:39;;;;;;;7.57;4.50;;;6.90;99.90;;;;;;4993215;28;20640;-72
2021/12/19 03:06:06;;;;;;;8.20;5.03;;;7.00;99.90;;;;;;4990018;28;20439;-71
2021/12/19 03:08:34;;;;;;;7.07;4.77;;;6.90;99.90;;;;;;5004382;28;20201;-71
2021/12/19 03:13:48;;;;;;;7.93;5.03;;;6.90;99.90;;;;;;4989645;28;20222;-71
2021/12/19 03:19:00;;;;;;;9.03;4.80;;;6.90;99.90;;;;;;4988381;28;20201;-71
2021/12/19 03:21:26;;;;;;;9.07;5.03;;;7.00;99.90;;;;;;4989308;28;20197;-72
2021/12/19 03:23:53;;;;;;;9.47;5.40;;;6.90;99.90;;;;;;5005145;28;20656;-71
2021/12/19 03:26:20;;;;;;;10.53;5.97;;;6.70;99.90;;;;;;4988790;28;20291;-71
2021/12/19 03:28:47;;;;;;;10.43;5.10;;;6.60;99.90;;;;;;4988203;28;20239;-74
2021/12/19 03:31:14;;;;;;;9.83;5.43;;;6.50;99.90;;;;;;4989277;28;20676;-71
2021/12/19 03:33:41;;;;;;;10.00;5.47;;;6.50;99.90;;;;;;4990968;28;20220;-71
2021/12/19 03:36:08;;;;;;;8.67;5.37;;;6.50;99.90;;;;;;4988216;28;20197;-72
2021/12/19 03:38:40;;;;;;;9.67;5.70;;;6.50;99.90;;;;;;4988993;28;20201;-71
2021/12/19 03:43:37;;;;;;;10.33;5.80;;;6.60;99.90;;;;;;4990412;28;20228;-71
2021/12/19 03:46:03;;;;;;;8.13;4.83;;;6.50;99.90;;;;;;4986851;28;20201;-73
2021/12/19 03:48:30;;;;;;;8.07;4.77;;;6.40;99.90;;;;;;4993129;28;20201;-73
2021/12/19 03:50:58;;;;;;;8.90;5.30;;;6.50;99.90;;;;;;4994146;28;20196;-71
2021/12/19 03:53:25;;;;;;;8.53;5.43;;;6.50;99.90;;;;;;4991627;28;20216;-71
2021/12/19 03:55:52;;;;;;;9.17;5.40;;;6.60;99.90;;;;;;4990983;28;20205;-71
2021/12/19 03:58:20;;;;;;;9.23;5.50;;;6.70;99.90;;;;;;4990971;28;20658;-71
2021/12/19 04:00:48;;;;;;;9.07;5.53;;;6.80;99.90;;;;;;4993979;28;20205;-71
2021/12/19 04:03:19;;;;;;;8.70;5.00;;;6.90;99.90;;;;;;4991302;28;20231;-72
2021/12/19 04:05:47;;;;;;;7.33;5.20;;;7.10;99.90;;;;;;4991268;28;20217;-74
2021/12/19 04:08:15;;;;;;;8.50;5.37;;;7.10;99.90;;;;;;4989373;28;20197;-74
2021/12/19 04:10:41;;;;;;;8.67;5.60;;;7.00;99.90;;;;;;4991634;28;20217;-73
2021/12/19 04:13:08;;;;;;;8.03;5.40;;;7.00;99.90;;;;;;4992436;28;20630;-74
2021/12/19 04:15:35;;;;;;;7.73;4.87;;;7.00;99.90;;;;;;4990828;28;20198;-71
2021/12/19 04:18:02;;;;;;;9.33;5.30;;;7.00;99.90;;;;;;4991417;28;20593;-73
2021/12/19 04:20:29;;;;;;;9.83;5.20;;;7.00;99.90;;;;;;4992437;28;20248;-71
2021/12/19 04:22:56;;;;;;;8.40;5.07;;;7.10;99.90;;;;;;4992110;28;20244;-71
2021/12/19 04:25:22;;;;;;;7.27;5.00;;;7.10;99.90;;;;;;4991927;28;20742;-74
2021/12/19 04:27:50;;;;;;;9.10;5.10;;;7.20;99.90;;;;;;4990773;28;20257;-71
2021/12/19 04:30:21;;;;;;;8.67;5.27;;;7.10;99.90;;;;;;4992668;28;20362;-71
2021/12/19 04:32:58;;;;;;;8.47;5.40;;;7.10;99.90;;;;;;4989575;28;20194;-72
2021/12/19 04:35:33;;;;;;;8.57;4.93;;;7.10;99.90;;;;;;4993875;28;20240;-69
2021/12/19 04:54:18;;;;;;;10.50;4.67;;;7.20;99.90;;;;;;4994514;28;20569;-69
2021/12/19 05:00:19;;;;;;;8.60;5.10;;;7.30;99.90;;;;;;4993981;28;20208;-72
2021/12/19 05:15:32;;;;;;;11.90;5.50;;;7.20;99.90;;;;;;4991293;28;20667;-73
2021/12/19 05:18:04;;;;;;;8.10;4.87;;;7.20;99.90;;;;;;4988296;28;20194;-72
2021/12/19 05:20:32;;;;;;;8.87;5.27;;;7.20;99.90;;;;;;4998298;28;20225;-71
2021/12/19 05:23:07;;;;;;;11.33;6.20;;;7.30;99.90;;;;;;4990510;28;20223;-71
2021/12/19 05:25:34;;;;;;;8.47;4.87;;;7.30;99.90;;;;;;4991005;28;20878;-74
2021/12/19 05:28:01;;;;;;;7.77;4.77;;;7.30;99.90;;;;;;4993159;28;20198;-71
2021/12/19 05:30:27;;;;;;;11.23;5.73;;;7.30;99.90;;;;;;4994941;28;20240;-70
2021/12/19 05:32:55;;;;;;;10.97;5.70;;;7.30;99.90;;;;;;4992975;28;20219;-70
2021/12/19 05:35:42;;;;;;;11.47;5.83;;;7.30;99.90;;;;;;5007702;28;20210;-70
2021/12/19 05:46:26;;;;;;;8.43;5.03;;;7.40;99.90;;;;;;4989976;28;20236;-71
2021/12/19 05:48:53;;;;;;;9.33;4.93;;;7.30;99.90;;;;;;4992262;28;20199;-72
2021/12/19 05:51:20;;;;;;;8.37;4.97;;;7.20;99.90;;;;;;4992357;28;20204;-70
2021/12/19 05:53:46;;;;;;;10.73;5.93;;;7.20;99.90;;;;;;4992960;28;20233;-73
2021/12/19 05:56:14;;;;;;;10.03;5.70;;;7.20;99.90;;;;;;4989979;28;20193;-70
2021/12/19 05:58:41;;;;;;;10.43;5.50;;;7.20;99.90;;;;;;4989517;28;20202;-69
2021/12/19 06:01:07;;;;;;;12.10;5.80;;;7.30;99.90;;;;;;4987895;28;20248;-71
2021/12/19 06:03:34;;;;;;;11.43;6.10;;;7.20;99.90;;;;;;4988958;28;20635;-70
2021/12/19 06:06:01;;;;;;;10.33;5.97;;;7.30;99.90;;;;;;4990377;28;20229;-70
2021/12/19 06:08:27;;;;;;;10.03;5.87;;;7.20;99.90;;;;;;4991994;28;20650;-70
2021/12/19 06:10:54;;;;;;;11.20;5.40;;;7.20;99.90;;;;;;4989131;28;20194;-70
2021/12/19 06:13:21;;;;;;;12.13;6.20;;;7.30;99.90;;;;;;4989944;28;20220;-70
2021/12/19 06:15:50;;;;;;;10.90;6.10;;;7.20;99.90;;;;;;4991219;28;20197;-70
2021/12/19 06:18:17;;;;;;;12.30;6.37;;;7.20;99.90;;;;;;4987477;28;20244;-70
2021/12/19 06:20:45;;;;;;;12.00;6.60;;;7.40;99.90;;;;;;4990513;28;20518;-71
2021/12/19 06:23:11;;;;;;;14.07;7.20;;;7.40;99.90;;;;;;4988751;28;20214;-70
2021/12/19 06:25:45;;;;;;;11.83;6.73;;;7.30;99.90;;;;;;4986251;28;20224;-73
2021/12/19 06:28:13;;;;;;;14.63;7.10;;;7.10;99.90;;;;;;4990858;28;20197;-73
2021/12/19 06:30:41;;;;;;;15.13;7.10;;;7.10;99.90;;;;;;4992975;28;20252;-73
2021/12/19 06:33:08;;;;;;;14.57;7.63;;;7.10;99.90;;;;;;4988703;28;20221;-70
2021/12/19 06:35:35;;;;;;;13.83;6.80;;;7.20;99.90;;;;;;4988376;28;20578;-70
2021/12/19 06:38:02;;;;;;;17.87;8.67;;;7.20;99.90;;;;;;4991487;28;20668;-73
2021/12/19 06:40:29;;;;;;;15.57;7.70;;;7.20;99.90;;;;;;4992628;28;20227;-70
2021/12/19 06:42:56;;;;;;;14.53;7.70;;;7.20;99.90;;;;;;4990626;28;20226;-70
2021/12/19 06:45:23;;;;;;;14.20;7.73;;;7.20;99.90;;;;;;4989377;28;20690;-70
2021/12/19 06:47:51;;;;;;;13.33;7.10;;;7.30;99.90;;;;;;4987555;28;20214;-72
2021/12/19 06:50:23;;;;;;;14.73;7.33;;;7.30;99.90;;;;;;4990010;28;20201;-70
2021/12/19 06:52:49;;;;;;;14.13;7.33;;;7.40;99.90;;;;;;4987797;28;20193;-70
2021/12/19 06:55:18;;;;;;;15.53;7.97;;;7.40;99.90;;;;;;5003904;28;20203;-70
2021/12/19 06:57:45;;;;;;;15.40;7.60;;;7.40;99.90;;;;;;4988299;28;20200;-70
2021/12/19 07:00:18;;;;;;;15.67;7.73;;;7.30;99.90;;;;;;4988382;28;20267;-70
2021/12/19 07:02:45;;;;;;;15.47;7.77;;;7.30;99.90;;;;;;4988002;28;20209;-73
2021/12/19 07:05:13;;;;;;;15.60;7.70;;;7.20;99.90;;;;;;4989933;28;20221;-69
2021/12/19 07:07:39;;;;;;;14.97;7.60;;;7.20;99.90;;;;;;4992592;28;20746;-73
2021/12/19 07:10:08;;;;;;;16.73;7.97;;;7.20;99.90;;;;;;4989453;28;20668;-69
2021/12/19 07:12:35;;;;;;;20.47;8.93;;;7.30;99.90;;;;;;4987914;28;20224;-70
2021/12/19 07:15:02;;;;;;;16.80;8.93;;;7.30;99.90;;;;;;4994963;28;20199;-73
2021/12/19 07:17:29;;;;;;;19.30;8.80;;;7.20;99.90;;;;;;4994717;28;20200;-70
2021/12/19 07:19:55;;;;;;;13.63;7.00;;;7.30;99.90;;;;;;4989462;28;20215;-72
2021/12/19 07:22:22;;;;;;;15.33;7.33;;;7.30;99.90;;;;;;4989374;28;20210;-69
2021/12/19 07:24:49;;;;;;;15.33;8.30;;;7.30;99.90;;;;;;4988416;28;20212;-69
2021/12/19 07:27:16;;;;;;;15.93;8.10;;;7.30;99.90;;;;;;4995897;28;20674;-70
2021/12/19 07:29:42;;;;;;;18.03;8.60;;;7.40;99.90;;;;;;4992190;28;20196;-69
2021/12/19 07:32:11;;;;;;;18.07;8.13;;;7.40;99.90;;;;;;4986750;28;20196;-72
2021/12/19 07:34:38;;;;;;;18.10;8.57;;;7.30;99.90;;;;;;4989878;28;20283;-73
2021/12/19 07:37:05;;;;;;;15.53;7.77;;;7.30;99.90;;;;;;4989794;28;20383;-70
2021/12/19 07:42:04;;;;;;;20.10;8.40;;;7.30;99.90;;;;;;4989496;28;20660;-71
2021/12/19 07:44:31;;;;;;;19.33;9.40;;;7.30;99.90;;;;;;4990235;28;20267;-71
2021/12/19 07:46:58;;;;;;;16.93;8.40;;;7.30;99.90;;;;;;5004802;28;20268;-69
2021/12/19 07:49:25;;;;;;;17.57;8.57;;;7.50;99.90;;;;;;4996061;28;20197;-69
2021/12/19 07:51:52;;;;;;;18.37;8.13;;;7.50;99.90;;;;;;4990243;28;20195;-72
2021/12/19 07:54:19;;;;;;;20.17;8.53;;;7.60;99.90;;;;;;4993678;28;20218;-70
2021/12/19 07:56:46;;;;;;;17.33;8.63;;;7.70;99.90;;;;;;5003580;28;20202;-70
2021/12/19 07:59:13;;;;;;;17.23;8.23;;;7.70;99.90;;;;;;4986370;28;20202;-72
2021/12/19 08:01:40;;;;;;;15.13;7.83;;;7.90;99.90;;;;;;4989200;28;20211;-70
2021/12/19 08:04:07;;;;;;;15.67;7.37;;;7.90;99.90;;;;;;4991471;28;20215;-70
2021/12/19 08:06:34;;;;;;;18.27;8.57;;;7.80;99.90;;;;;;5001678;28;20217;-70
2021/12/19 08:09:11;;;;;;;18.30;8.87;;;7.80;99.90;;;;;;4990096;28;20196;-70
2021/12/19 08:11:42;;;;;;;16.37;7.73;;;7.80;99.90;;;;;;4995500;28;20189;-70
2021/12/19 08:14:11;;;;;;;17.63;8.53;;;8.00;99.90;;;;;;4993044;28;20223;-70
2021/12/19 08:16:39;;;;;;;19.27;9.17;;;8.00;99.90;;;;;;4991058;28;20202;-70
2021/12/19 08:19:06;;;;;;;20.80;9.03;;;8.00;99.90;;;;;;4996280;28;20203;-70
2021/12/19 08:21:33;;;;;;;17.93;8.27;;;8.00;99.90;;;;;;4998850;28;20206;-70
2021/12/19 08:24:02;;;;;;;15.97;8.27;;;8.10;99.90;;;;;;4983570;28;20220;-69
2021/12/19 08:26:30;;;;;;;18.30;9.00;;;8.10;99.90;;;;;;4990764;28;20310;-72
2021/12/19 08:29:02;;;;;;;15.80;8.00;;;8.10;99.90;;;;;;5009437;28;20557;-73
2021/12/19 08:31:29;;;;;;;18.30;8.43;;;8.00;99.90;;;;;;4995034;28;20194;-70
2021/12/19 08:33:56;;;;;;;16.63;7.50;;;8.00;99.90;;;;;;4992211;28;20216;-71
2021/12/19 08:36:23;;;;;;;15.60;7.43;;;8.10;99.90;;;;;;4992868;28;20212;-73
2021/12/19 08:38:50;;;;;;;16.50;8.03;;;8.10;99.90;;;;;;4993760;28;20202;-72
2021/12/19 08:41:16;;;;;;;17.20;8.47;;;8.10;99.90;;;;;;5001435;28;20214;-70
2021/12/19 08:43:43;;;;;;;17.80;8.53;;;8.00;99.90;;;;;;4991919;28;20590;-70
2021/12/19 08:46:11;;;;;;;17.00;8.50;;;8.00;99.90;;;;;;4991291;28;20310;-69
2021/12/19 08:48:39;;;;;;;16.87;8.10;;;8.10;99.90;;;;;;4995203;28;20193;-73
2021/12/19 08:51:06;;;;;;;16.57;8.30;;;8.10;99.90;;;;;;5002660;28;20568;-70
2021/12/19 08:53:33;;;;;;;15.40;8.20;;;8.20;99.90;;;;;;4992441;28;20219;-71
2021/12/19 08:56:00;;;;;;;17.63;8.43;;;8.20;99.90;;;;;;4994922;28;20197;-70
2021/12/19 08:58:29;;;;;;;16.83;7.93;;;8.30;99.90;;;;;;5006885;28;20235;-70
2021/12/19 09:01:01;;;;;;;17.87;8.90;;;8.30;99.90;;;;;;4987149;28;20697;-71
2021/12/19 09:03:32;;;;;;;17.17;8.53;;;8.40;99.90;;;;;;4969877;28;20223;-72
2021/12/19 09:05:59;;;;;;;17.73;8.20;;;8.50;99.90;;;;;;5002482;28;20216;-73
2021/12/19 09:08:26;;;;;;;18.10;8.30;;;8.50;99.90;;;;;;4992735;28;20200;-72
2021/12/19 09:10:54;;;;;;;15.97;8.27;;;8.60;99.90;;;;;;4990831;28;20215;-74
2021/12/19 09:13:22;;;;;;;16.77;8.53;;;8.60;99.90;;;;;;5004843;28;20216;-71
2021/12/19 09:15:49;;;;;;;14.83;7.83;;;8.70;99.90;;;;;;4990371;28;20734;-71
2021/12/19 09:18:17;;;;;;;16.77;7.63;;;8.70;99.90;;;;;;4997019;28;20657;-72
2021/12/19 09:20:43;;;;;;;12.57;6.97;;;8.70;99.90;;;;;;4995533;28;20617;-72
2021/12/19 09:23:11;;;;;;;15.07;7.73;;;8.70;99.90;;;;;;4991606;28;20622;-71
2021/12/19 09:25:39;;;;;;;14.90;7.47;;;8.90;99.90;;;;;;4986589;28;20595;-68
2021/12/19 09:28:06;;;;;;;14.97;7.73;;;9.00;99.90;;;;;;4985480;28;20692;-71
2021/12/19 09:30:34;;;;;;;13.90;7.13;;;9.00;99.90;;;;;;4991925;28;20259;-68
2021/12/19 09:33:01;;;;;;;12.50;7.13;;;8.80;99.90;;;;;;4983846;28;20272;-70
2021/12/19 09:35:28;;;;;;;15.03;7.97;;;8.90;99.90;;;;;;4982457;28;20207;-72
2021/12/19 09:37:55;;;;;;;13.00;6.60;;;8.80;99.90;;;;;;4996786;28;21257;-70
2021/12/19 09:40:25;;;;;;;12.60;6.90;;;8.80;99.90;;;;;;4994748;28;20215;-74
2021/12/19 09:43:00;;;;;;;15.70;7.77;;;8.80;99.90;;;;;;4993240;28;20225;-74
2021/12/19 09:45:28;;;;;;;17.33;8.03;;;8.90;99.90;;;;;;4996040;28;20219;-70
2021/12/19 09:48:18;;;;;;;15.57;7.67;;;9.00;99.90;;;;;;4995075;28;20200;-71
2021/12/19 09:50:47;;;;;;;15.00;7.37;;;9.20;99.90;;;;;;4990670;28;20197;-73
2021/12/19 09:53:15;;;;;;;15.57;7.77;;;9.20;99.90;;;;;;4993388;28;20219;-72
2021/12/19 09:55:41;;;;;;;13.27;7.33;;;9.00;99.90;;;;;;4996322;28;20203;-70
2021/12/19 09:58:08;;;;;;;15.20;7.20;;;9.00;99.90;;;;;;4988795;28;20212;-73
2021/12/19 10:00:34;;;;;;;14.93;8.03;;;9.00;99.90;;;;;;4988522;28;20205;-70
2021/12/19 10:03:01;;;;;;;15.33;8.03;;;9.20;99.90;;;;;;4992935;28;20735;-73
2021/12/19 10:05:28;;;;;;;17.40;8.07;;;9.20;99.90;;;;;;5001530;28;20224;-72
2021/12/19 10:08:01;;;;;;;14.70;7.80;;;9.10;99.90;;;;;;4989218;28;20197;-70
2021/12/19 10:10:47;;;;;;;14.60;7.77;;;9.20;99.90;;;;;;4996899;28;20193;-72
2021/12/19 10:13:15;;;;;;;16.30;7.63;;;9.10;99.90;;;;;;5000789;28;20216;-73
2021/12/19 10:15:45;;;;;;;14.10;7.60;;;9.10;99.90;;;;;;4993711;28;20208;-71
2021/12/19 10:18:16;;;;;;;15.23;8.00;;;9.30;99.90;;;;;;4989796;28;20197;-70
2021/12/19 10:20:46;;;;;;;13.23;7.03;;;9.40;99.90;;;;;;4995440;28;20205;-70
2021/12/19 10:23:19;;;;;;;12.57;6.90;;;9.40;99.90;;;;;;4995400;28;20722;-73
2021/12/19 10:26:03;;;;;;;15.33;7.77;;;9.50;99.90;;;;;;4993869;28;20254;-70
2021/12/19 10:28:30;;;;;;;14.30;7.43;;;9.70;99.90;;;;;;4989114;28;20561;-69
2021/12/19 10:30:59;;;;;;;14.20;7.80;;;9.70;99.90;;;;;;4988869;28;20209;-72
2021/12/19 10:33:33;;;;;;;13.70;7.10;;;9.80;99.90;;;;;;4988660;28;20224;-70
2021/12/19 10:36:05;;;;;;;13.93;7.43;;;9.80;99.90;;;;;;4996607;28;20622;-74
2021/12/19 10:38:38;;;;;;;13.70;7.13;;;9.90;99.90;;;;;;4994895;28;20210;-71
2021/12/19 10:41:13;;;;;;;14.30;7.33;;;9.80;99.90;;;;;;4988258;28;20198;-70
2021/12/19 10:44:03;;;;;;;12.30;6.93;;;9.90;99.90;;;;;;4989388;28;20221;-70
2021/12/19 10:46:32;;;;;;;15.93;7.73;;;9.90;99.90;;;;;;4989298;28;20223;-70
2021/12/19 10:49:00;;;;;;;16.77;7.40;;;10.10;99.90;;;;;;4988597;28;20203;-71
2021/12/19 10:51:36;;;;;;;12.13;6.87;;;10.10;99.90;;;;;;4993631;28;20241;-72
2021/12/19 10:54:07;;;;;;;12.27;6.53;;;10.00;99.90;;;;;;4987530;28;20214;-73
2021/12/19 10:56:36;;;;;;;15.07;7.07;;;9.80;99.90;;;;;;4994728;28;20204;-75
2021/12/19 10:59:07;;;;;;;14.37;6.90;;;10.00;99.90;;;;;;4995340;28;20498;-72
2021/12/19 11:01:44;;;;;;;13.80;7.30;;;10.00;99.90;;;;;;4992910;28;20203;-73
2021/12/19 11:04:13;;;;;;;12.37;7.10;;;9.90;99.90;;;;;;4992198;28;20213;-70
2021/12/19 11:06:54;;;;;;;18.43;7.50;;;10.00;99.90;;;;;;4990309;28;20278;-70
2021/12/19 11:09:22;;;;;;;16.90;6.57;;;9.90;99.90;;;;;;4990756;28;20208;-70
2021/12/19 11:11:56;;;;;;;14.50;7.40;;;9.90;99.90;;;;;;4989237;28;20205;-70
2021/12/19 11:14:23;;;;;;;14.47;7.10;;;9.80;99.90;;;;;;4986783;28;20224;-70
2021/12/19 11:16:52;;;;;;;14.40;7.50;;;9.90;99.90;;;;;;4992640;28;20545;-70
2021/12/19 11:19:19;;;;;;;14.77;7.67;;;9.80;99.90;;;;;;4987313;28;20259;-71
2021/12/19 11:22:06;;;;;;;17.37;8.27;;;9.80;99.90;;;;;;4987884;28;20204;-70
2021/12/19 11:24:33;;;;;;;15.63;7.63;;;9.70;99.90;;;;;;4992822;28;20684;-70
2021/12/19 11:27:02;;;;;;;13.73;7.00;;;9.70;99.90;;;;;;4987526;28;20221;-71
2021/12/19 11:29:29;;;;;;;13.50;7.27;;;9.60;99.90;;;;;;4990676;28;20253;-70
2021/12/19 11:32:00;;;;;;;13.93;7.17;;;9.70;99.90;;;;;;4992645;28;20687;-69
2021/12/19 11:34:43;;;;;;;14.57;7.57;;;9.60;99.90;;;;;;4988200;28;20224;-72
2021/12/19 11:37:14;;;;;;;15.70;7.17;;;9.60;99.90;;;;;;4987264;28;20205;-70
2021/12/19 11:39:46;;;;;;;15.47;7.50;;;9.80;99.90;;;;;;5007386;28;20200;-75
2021/12/19 11:42:16;;;;;;;14.33;7.47;;;9.70;99.90;;;;;;4999466;28;20205;-75
2021/12/19 11:45:33;;;;;;;14.33;7.40;;;9.80;99.90;;;;;;4985743;28;20216;-75
2021/12/19 11:47:43;;;;;;;14.83;7.60;;;9.90;99.90;;;;;;4992079;28;20603;-73
2021/12/19 11:50:23;;;;;;;14.07;7.40;;;9.90;99.90;;;;;;5007444;28;20193;-75
2021/12/19 11:52:56;;;;;;;12.70;6.70;;;9.90;99.90;;;;;;4999755;28;20212;-72
2021/12/19 11:55:43;;;;;;;14.93;7.60;;;10.00;99.90;;;;;;4990698;28;20205;-71
2021/12/19 11:58:12;;;;;;;14.40;7.23;;;10.10;99.90;;;;;;4984364;28;20258;-71
2021/12/19 12:00:47;;;;;;;13.73;7.80;;;10.00;99.90;;;;;;4987288;28;20983;-70
2021/12/19 12:03:13;;;;;;;15.63;7.73;;;9.90;99.90;;;;;;4988017;28;20224;-74
2021/12/19 12:06:30;;;;;;;15.83;8.13;;;9.90;99.90;;;;;;4992701;28;20208;-72
2021/12/19 12:09:08;;;;;;;14.40;7.33;;;9.90;99.90;;;;;;4992345;28;20212;-72
2021/12/19 12:11:40;;;;;;;16.17;7.47;;;9.80;99.90;;;;;;4991627;28;20200;-71
2021/12/19 12:14:27;;;;;;;16.57;7.97;;;9.80;99.90;;;;;;5003747;28;20221;-71
2021/12/19 12:17:00;;;;;;;15.67;7.90;;;9.90;99.90;;;;;;4990654;28;20208;-72
2021/12/19 12:19:46;;;;;;;14.37;7.50;;;9.80;99.90;;;;;;4991391;28;20211;-71
2021/12/19 12:22:22;;;;;;;14.77;7.20;;;9.90;99.90;;;;;;5003070;28;20218;-72
2021/12/19 12:25:04;;;;;;;15.17;7.50;;;9.80;99.90;;;;;;4992886;28;20284;-71
2021/12/19 12:28:05;;;;;;;15.40;8.17;;;9.80;99.90;;;;;;4990441;28;20308;-71
2021/12/19 12:30:33;;;;;;;15.53;7.03;;;9.80;99.90;;;;;;4999389;28;20193;-71
2021/12/19 12:33:02;;;;;;;14.70;7.10;;;9.70;99.90;;;;;;4991494;28;20220;-71
2021/12/19 12:35:31;;;;;;;14.67;8.00;;;9.80;99.90;;;;;;4992131;28;20280;-71
2021/12/19 12:38:00;;;;;;;15.67;7.60;;;9.90;99.90;;;;;;4997632;28;20203;-72
2021/12/19 12:40:57;;;;;;;17.37;8.23;;;9.80;99.90;;;;;;5002160;28;20366;-70
2021/12/19 12:43:26;;;;;;;14.57;8.03;;;9.80;99.90;;;;;;4990151;28;20224;-72
2021/12/19 12:45:55;;;;;;;17.40;7.87;;;9.60;99.90;;;;;;4995508;28;20260;-72
2021/12/19 12:48:26;;;;;;;16.00;7.47;;;9.60;99.90;;;;;;5002059;28;20195;-72
2021/12/19 12:50:52;;;;;;;13.27;7.23;;;9.30;99.90;;;;;;4990381;28;20198;-71
2021/12/19 12:53:38;;;;;;;14.97;7.17;;;9.10;99.90;;;;;;4990946;28;20638;-73
2021/12/19 12:56:13;;;;;;;14.87;7.57;;;8.90;99.90;;;;;;4991218;28;20199;-74
2021/12/19 12:58:47;;;;;;;15.00;7.77;;;8.80;99.90;;;;;;4990267;28;20582;-72
2021/12/19 13:01:25;;;;;;;15.33;7.97;;;8.80;99.90;;;;;;4996745;28;20234;-71
2021/12/19 13:04:03;;;;;;;15.20;6.47;;;8.90;99.90;;;;;;4995997;28;20219;-72
2021/12/19 13:06:50;;;;;;;14.27;7.07;;;8.60;99.90;;;;;;4990332;28;20214;-74
2021/12/19 13:09:37;;;;;;;13.30;6.40;;;8.50;99.90;;;;;;4998649;28;20194;-72
2021/12/19 13:12:16;;;;;;;14.07;7.17;;;8.50;99.90;;;;;;5005264;28;20194;-73
2021/12/19 13:15:01;;;;;;;12.70;6.57;;;8.60;99.90;;;;;;4994397;28;20230;-72
2021/12/19 13:17:33;;;;;;;14.43;7.33;;;8.50;99.90;;;;;;4996522;28;20206;-72
2021/12/19 13:20:13;;;;;;;13.07;6.53;;;8.60;99.90;;;;;;5009866;28;20256;-72
2021/12/19 13:22:51;;;;;;;16.23;7.53;;;8.70;99.90;;;;;;4996379;28;20207;-73
2021/12/19 13:25:21;;;;;;;13.70;7.47;;;8.70;99.90;;;;;;5005865;28;20713;-72
2021/12/19 13:27:48;;;;;;;15.67;7.73;;;8.70;99.90;;;;;;4996139;28;20641;-74
2021/12/19 13:30:32;;;;;;;14.63;6.93;;;8.70;99.90;;;;;;4987788;28;20203;-72
2021/12/19 13:33:01;;;;;;;14.50;7.60;;;8.60;99.90;;;;;;4994908;28;20231;-72
2021/12/19 13:35:38;;;;;;;15.00;6.90;;;8.60;99.90;;;;;;4990038;28;20211;-72
2021/12/19 13:38:10;;;;;;;13.40;7.17;;;8.70;99.90;;;;;;4991072;28;20203;-73
2021/12/19 13:40:49;;;;;;;13.83;7.47;;;8.50;99.90;;;;;;4993090;28;20992;-71
2021/12/19 13:43:32;;;;;;;9.53;5.43;;;8.50;99.90;;;;;;4989478;28;20216;-70
2021/12/19 13:46:00;;;;;;;9.93;5.80;;;8.20;99.90;;;;;;4988526;28;20204;-72
2021/12/19 13:48:38;;;;;;;10.27;5.70;;;8.10;99.90;;;;;;4993174;28;20205;-72
2021/12/19 13:51:18;;;;;;;9.50;5.20;;;8.00;99.90;;;;;;4990895;28;20198;-71
2021/12/19 13:53:47;;;;;;;9.23;5.63;;;8.10;99.90;;;;;;4986465;28;20217;-74
2021/12/19 13:56:17;;;;;;;10.47;6.10;;;8.00;99.90;;;;;;4993961;28;20221;-71
2021/12/19 13:58:50;;;;;;;9.70;5.40;;;8.00;99.90;;;;;;4991204;28;20199;-73
2021/12/19 14:01:19;;;;;;;10.80;5.30;;;8.20;99.90;;;;;;4990292;28;20203;-71
2021/12/19 14:03:58;;;;;;;8.60;4.77;;;8.20;99.90;;;;;;4991514;28;20218;-71
2021/12/19 14:06:29;;;;;;;9.47;5.80;;;8.20;99.90;;;;;;4992342;28;20643;-74
2021/12/19 14:09:04;;;;;;;8.07;4.87;;;8.10;99.90;;;;;;4991486;28;20205;-71
2021/12/19 14:11:30;;;;;;;7.77;4.90;;;8.20;99.90;;;;;;4993404;28;20548;-73
2021/12/19 14:14:00;;;;;;;7.90;4.73;;;8.10;99.90;;;;;;4989607;28;20223;-73
2021/12/19 14:16:48;;;;;;;7.20;4.83;;;8.20;99.90;;;;;;5005425;28;20206;-71